sensor_id;sensor_type;location;lat;lon;timestamp;temperature;humidity
13808;DHT22;40769;51.512;5.494;2023-04-05T00:01:27;5.20;99.90
13808;DHT22;40769;51.512;5.494;2023-04-05T00:03:54;5.20;99.90
13808;DHT22;40769;51.512;5.494;2023-04-05T00:06:27;5.30;99.90
13808;DHT22;40769;51.512;5.494;2023-04-05T00:08:57;5.40;99.90
13808;DHT22;40769;51.512;5.494;2023-04-05T00:11:24;5.40;99.90
13808;DHT22;40769;51.512;5.494;2023-04-05T00:13:50;5.40;99.90
13808;DHT22;40769;51.512;5.494;2023-04-05T00:16:17;5.30;99.90
13808;DHT22;40769;51.512;5.494;2023-04-05T00:18:43;5.10;99.90
13808;DHT22;40769;51.512;5.494;2023-04-05T00:21:19;5.00;99.90
13808;DHT22;40769;51.512;5.494;2023-04-05T00:23:49;4.90;99.90
13808;DHT22;40769;51.512;5.494;2023-04-05T00:26:19;4.90;99.90
13808;DHT22;40769;51.512;5.494;2023-04-05T00:28:46;4.90;99.90
13808;DHT22;40769;51.512;5.494;2023-04-05T00:31:12;5.00;99.90
13808;DHT22;40769;51.512;5.494;2023-04-05T00:33:38;5.00;99.90
13808;DHT22;40769;51.512;5.494;2023-04-05T00:36:11;5.00;99.90
13808;DHT22;40769;51.512;5.494;2023-04-05T00:38:38;4.90;99.90
13808;DHT22;40769;51.512;5.494;2023-04-05T00:41:03;4.80;99.90
13808;DHT22;40769;51.512;5.494;2023-04-05T00:43:29;4.70;99.90
13808;DHT22;40769;51.512;5.494;2023-04-05T00:45:55;4.50;99.90
13808;DHT22;40769;51.512;5.494;2023-04-05T00:48:21;4.40;99.90
13808;DHT22;40769;51.512;5.494;2023-04-05T00:50:48;4.40;99.90
13808;DHT22;40769;51.512;5.494;2023-04-05T00:53:16;4.30;99.90
13808;DHT22;40769;51.512;5.494;2023-04-05T00:55:43;4.50;99.90
13808;DHT22;40769;51.512;5.494;2023-04-05T00:58:09;4.30;99.90
13808;DHT22;40769;51.512;5.494;2023-04-05T01:00:39;4.30;99.90
13808;DHT22;40769;51.512;5.494;2023-04-05T01:03:06;4.40;99.90
13808;DHT22;40769;51.512;5.494;2023-04-05T01:05:46;4.40;99.90
13808;DHT22;40769;51.512;5.494;2023-04-05T01:10:54;4.40;99.90
13808;DHT22;40769;51.512;5.494;2023-04-05T01:13:23;4.50;99.90
13808;DHT22;40769;51.512;5.494;2023-04-05T01:15:49;4.50;99.90
13808;DHT22;40769;51.512;5.494;2023-04-05T01:18:15;4.30;99.90
13808;DHT22;40769;51.512;5.494;2023-04-05T01:20:47;4.20;99.90
13808;DHT22;40769;51.512;5.494;2023-04-05T01:26:47;3.80;99.90
13808;DHT22;40769;51.512;5.494;2023-04-05T01:34:51;3.60;99.90
13808;DHT22;40769;51.512;5.494;2023-04-05T01:37:21;3.70;99.90
13808;DHT22;40769;51.512;5.494;2023-04-05T01:39:48;3.70;99.90
13808;DHT22;40769;51.512;5.494;2023-04-05T01:42:22;3.80;99.90
13808;DHT22;40769;51.512;5.494;2023-04-05T01:44:50;3.70;99.90
13808;DHT22;40769;51.512;5.494;2023-04-05T01:47:16;3.80;99.90
13808;DHT22;40769;51.512;5.494;2023-04-05T01:49:42;3.00;99.90
13808;DHT22;40769;51.512;5.494;2023-04-05T01:52:07;3.60;99.90
13808;DHT22;40769;51.512;5.494;2023-04-05T01:54:33;3.40;99.90
13808;DHT22;40769;51.512;5.494;2023-04-05T01:56:58;3.40;99.90
13808;DHT22;40769;51.512;5.494;2023-04-05T01:59:24;3.30;99.90
13808;DHT22;40769;51.512;5.494;2023-04-05T02:01:50;3.30;99.90
13808;DHT22;40769;51.512;5.494;2023-04-05T02:04:16;3.40;99.90
13808;DHT22;40769;51.512;5.494;2023-04-05T02:06:42;3.50;99.90
13808;DHT22;40769;51.512;5.494;2023-04-05T02:09:07;3.60;99.90
13808;DHT22;40769;51.512;5.494;2023-04-05T02:11:33;3.70;99.90
13808;DHT22;40769;51.512;5.494;2023-04-05T02:13:58;3.80;99.90
13808;DHT22;40769;51.512;5.494;2023-04-05T02:16:24;3.80;99.90
13808;DHT22;40769;51.512;5.494;2023-04-05T02:18:52;3.70;99.90
13808;DHT22;40769;51.512;5.494;2023-04-05T02:21:22;3.60;99.90
13808;DHT22;40769;51.512;5.494;2023-04-05T02:23:48;3.40;99.90
13808;DHT22;40769;51.512;5.494;2023-04-05T02:26:14;3.30;99.90
13808;DHT22;40769;51.512;5.494;2023-04-05T02:28:40;3.40;99.90
13808;DHT22;40769;51.512;5.494;2023-04-05T02:31:12;3.40;99.90
13808;DHT22;40769;51.512;5.494;2023-04-05T02:33:38;3.50;99.90
13808;DHT22;40769;51.512;5.494;2023-04-05T02:36:09;3.60;99.90
13808;DHT22;40769;51.512;5.494;2023-04-05T02:38:35;3.60;99.90
13808;DHT22;40769;51.512;5.494;2023-04-05T02:41:01;3.70;99.90
13808;DHT22;40769;51.512;5.494;2023-04-05T02:43:27;3.80;99.90
13808;DHT22;40769;51.512;5.494;2023-04-05T02:45:53;3.80;99.90
13808;DHT22;40769;51.512;5.494;2023-04-05T02:48:19;3.70;99.90
13808;DHT22;40769;51.512;5.494;2023-04-05T02:50:51;3.50;99.90
13808;DHT22;40769;51.512;5.494;2023-04-05T02:53:17;3.30;99.90
13808;DHT22;40769;51.512;5.494;2023-04-05T02:55:53;3.30;99.90
13808;DHT22;40769;51.512;5.494;2023-04-05T02:58:19;3.30;99.90
13808;DHT22;40769;51.512;5.494;2023-04-05T03:00:49;3.40;99.90
13808;DHT22;40769;51.512;5.494;2023-04-05T03:03:22;3.50;99.90
13808;DHT22;40769;51.512;5.494;2023-04-05T03:05:48;3.60;99.90
13808;DHT22;40769;51.512;5.494;2023-04-05T03:08:17;3.70;99.90
13808;DHT22;40769;51.512;5.494;2023-04-05T03:10:50;3.80;99.90
13808;DHT22;40769;51.512;5.494;2023-04-05T03:13:18;3.70;99.90
13808;DHT22;40769;51.512;5.494;2023-04-05T03:15:44;3.60;99.90
13808;DHT22;40769;51.512;5.494;2023-04-05T03:18:10;3.40;99.90
13808;DHT22;40769;51.512;5.494;2023-04-05T03:20:36;3.30;99.90
13808;DHT22;40769;51.512;5.494;2023-04-05T03:23:09;3.20;99.90
13808;DHT22;40769;51.512;5.494;2023-04-05T03:25:36;3.30;99.90
13808;DHT22;40769;51.512;5.494;2023-04-05T03:28:03;3.30;99.90
13808;DHT22;40769;51.512;5.494;2023-04-05T03:30:31;3.40;99.90
13808;DHT22;40769;51.512;5.494;2023-04-05T03:32:56;3.50;99.90
13808;DHT22;40769;51.512;5.494;2023-04-05T03:35:26;3.50;99.90
13808;DHT22;40769;51.512;5.494;2023-04-05T03:37:52;3.40;99.90
13808;DHT22;40769;51.512;5.494;2023-04-05T03:40:18;3.30;99.90
13808;DHT22;40769;51.512;5.494;2023-04-05T03:42:43;3.10;99.90
13808;DHT22;40769;51.512;5.494;2023-04-05T03:45:10;3.00;99.90
13808;DHT22;40769;51.512;5.494;2023-04-05T03:47:36;3.40;99.90
13808;DHT22;40769;51.512;5.494;2023-04-05T03:50:02;3.10;99.90
13808;DHT22;40769;51.512;5.494;2023-04-05T03:52:29;3.20;99.90
13808;DHT22;40769;51.512;5.494;2023-04-05T03:54:54;3.20;99.90
13808;DHT22;40769;51.512;5.494;2023-04-05T03:57:20;3.20;99.90
13808;DHT22;40769;51.512;5.494;2023-04-05T03:59:46;3.00;99.90
13808;DHT22;40769;51.512;5.494;2023-04-05T04:02:12;2.90;99.90
13808;DHT22;40769;51.512;5.494;2023-04-05T04:04:43;2.80;99.90
13808;DHT22;40769;51.512;5.494;2023-04-05T04:07:08;2.80;99.90
13808;DHT22;40769;51.512;5.494;2023-04-05T04:09:34;2.70;99.90
13808;DHT22;40769;51.512;5.494;2023-04-05T04:11:59;2.90;99.90
13808;DHT22;40769;51.512;5.494;2023-04-05T04:14:25;3.30;99.90
13808;DHT22;40769;51.512;5.494;2023-04-05T04:16:51;2.90;99.90
13808;DHT22;40769;51.512;5.494;2023-04-05T04:19:17;2.20;99.90
13808;DHT22;40769;51.512;5.494;2023-04-05T04:21:43;2.70;99.90
13808;DHT22;40769;51.512;5.494;2023-04-05T04:24:10;2.50;99.90
13808;DHT22;40769;51.512;5.494;2023-04-05T04:26:46;2.40;99.90
13808;DHT22;40769;51.512;5.494;2023-04-05T04:29:12;2.30;99.90
13808;DHT22;40769;51.512;5.494;2023-04-05T04:31:41;2.20;99.90
13808;DHT22;40769;51.512;5.494;2023-04-05T04:34:13;2.20;99.90
13808;DHT22;40769;51.512;5.494;2023-04-05T04:36:39;2.10;99.90
13808;DHT22;40769;51.512;5.494;2023-04-05T04:39:08;2.00;99.90
13808;DHT22;40769;51.512;5.494;2023-04-05T04:41:35;1.90;99.90
13808;DHT22;40769;51.512;5.494;2023-04-05T04:44:01;1.90;99.90
13808;DHT22;40769;51.512;5.494;2023-04-05T04:46:32;1.80;99.90
13808;DHT22;40769;51.512;5.494;2023-04-05T04:49:08;1.80;99.90
13808;DHT22;40769;51.512;5.494;2023-04-05T04:51:36;1.70;99.90
13808;DHT22;40769;51.512;5.494;2023-04-05T04:54:02;1.70;99.90
13808;DHT22;40769;51.512;5.494;2023-04-05T04:56:28;1.90;99.90
13808;DHT22;40769;51.512;5.494;2023-04-05T04:58:56;1.60;99.90
13808;DHT22;40769;51.512;5.494;2023-04-05T05:01:22;1.60;99.90
13808;DHT22;40769;51.512;5.494;2023-04-05T05:03:49;1.60;99.90
13808;DHT22;40769;51.512;5.494;2023-04-05T05:06:16;1.60;99.90
13808;DHT22;40769;51.512;5.494;2023-04-05T05:08:44;1.60;99.90
13808;DHT22;40769;51.512;5.494;2023-04-05T05:11:11;1.50;99.90
13808;DHT22;40769;51.512;5.494;2023-04-05T05:13:36;1.50;99.90
13808;DHT22;40769;51.512;5.494;2023-04-05T05:16:02;1.50;99.90
13808;DHT22;40769;51.512;5.494;2023-04-05T05:18:28;1.50;99.90
13808;DHT22;40769;51.512;5.494;2023-04-05T05:20:54;1.50;99.90
13808;DHT22;40769;51.512;5.494;2023-04-05T05:23:20;1.50;99.90
13808;DHT22;40769;51.512;5.494;2023-04-05T05:25:46;1.60;99.90
13808;DHT22;40769;51.512;5.494;2023-04-05T05:28:11;1.60;99.90
13808;DHT22;40769;51.512;5.494;2023-04-05T05:30:37;1.60;99.90
13808;DHT22;40769;51.512;5.494;2023-04-05T05:33:03;1.60;99.90
13808;DHT22;40769;51.512;5.494;2023-04-05T05:35:28;1.70;99.90
13808;DHT22;40769;51.512;5.494;2023-04-05T05:37:54;1.70;99.90
13808;DHT22;40769;51.512;5.494;2023-04-05T05:40:20;1.70;99.90
13808;DHT22;40769;51.512;5.494;2023-04-05T05:42:45;1.70;99.90
13808;DHT22;40769;51.512;5.494;2023-04-05T05:45:11;1.70;99.90
13808;DHT22;40769;51.512;5.494;2023-04-05T05:47:37;1.70;99.90
13808;DHT22;40769;51.512;5.494;2023-04-05T05:50:03;1.80;99.90
13808;DHT22;40769;51.512;5.494;2023-04-05T05:52:30;1.80;99.90
13808;DHT22;40769;51.512;5.494;2023-04-05T05:54:55;1.80;99.90
13808;DHT22;40769;51.512;5.494;2023-04-05T05:57:21;1.90;99.90
13808;DHT22;40769;51.512;5.494;2023-04-05T05:59:47;1.90;99.90
13808;DHT22;40769;51.512;5.494;2023-04-05T06:02:13;2.00;99.90
13808;DHT22;40769;51.512;5.494;2023-04-05T06:04:39;2.00;99.90
13808;DHT22;40769;51.512;5.494;2023-04-05T06:07:05;2.10;99.90
13808;DHT22;40769;51.512;5.494;2023-04-05T06:09:30;2.20;99.90
13808;DHT22;40769;51.512;5.494;2023-04-05T06:11:59;2.40;99.90
13808;DHT22;40769;51.512;5.494;2023-04-05T06:14:25;2.60;99.90
13808;DHT22;40769;51.512;5.494;2023-04-05T06:16:51;2.60;99.90
13808;DHT22;40769;51.512;5.494;2023-04-05T06:19:17;2.80;99.90
13808;DHT22;40769;51.512;5.494;2023-04-05T06:21:42;3.00;99.90
13808;DHT22;40769;51.512;5.494;2023-04-05T06:24:08;3.20;99.90
13808;DHT22;40769;51.512;5.494;2023-04-05T06:26:34;3.50;99.90
13808;DHT22;40769;51.512;5.494;2023-04-05T06:28:59;3.80;99.90
13808;DHT22;40769;51.512;5.494;2023-04-05T06:31:26;4.10;99.90
13808;DHT22;40769;51.512;5.494;2023-04-05T06:33:55;4.40;99.90
13808;DHT22;40769;51.512;5.494;2023-04-05T06:36:21;4.70;99.90
13808;DHT22;40769;51.512;5.494;2023-04-05T06:38:46;5.10;99.90
13808;DHT22;40769;51.512;5.494;2023-04-05T06:41:12;5.50;99.90
13808;DHT22;40769;51.512;5.494;2023-04-05T06:43:37;5.70;99.90
13808;DHT22;40769;51.512;5.494;2023-04-05T06:46:03;6.00;99.90
13808;DHT22;40769;51.512;5.494;2023-04-05T06:48:33;6.40;99.90
13808;DHT22;40769;51.512;5.494;2023-04-05T06:51:00;6.70;99.90
13808;DHT22;40769;51.512;5.494;2023-04-05T06:53:27;7.20;99.90
13808;DHT22;40769;51.512;5.494;2023-04-05T06:55:57;7.60;99.90
13808;DHT22;40769;51.512;5.494;2023-04-05T06:58:23;8.00;99.90
13808;DHT22;40769;51.512;5.494;2023-04-05T07:00:49;8.40;99.90
13808;DHT22;40769;51.512;5.494;2023-04-05T07:03:15;8.70;99.90
13808;DHT22;40769;51.512;5.494;2023-04-05T07:05:49;9.00;99.90
13808;DHT22;40769;51.512;5.494;2023-04-05T07:08:16;9.40;99.90
13808;DHT22;40769;51.512;5.494;2023-04-05T07:10:42;9.50;99.90
13808;DHT22;40769;51.512;5.494;2023-04-05T07:13:08;9.60;99.90
13808;DHT22;40769;51.512;5.494;2023-04-05T07:15:33;9.80;99.90
13808;DHT22;40769;51.512;5.494;2023-04-05T07:17:59;10.00;99.90
13808;DHT22;40769;51.512;5.494;2023-04-05T07:20:25;10.30;99.90
13808;DHT22;40769;51.512;5.494;2023-04-05T07:22:50;10.70;99.90
13808;DHT22;40769;51.512;5.494;2023-04-05T07:25:16;11.00;99.90
13808;DHT22;40769;51.512;5.494;2023-04-05T07:27:41;11.20;99.90
13808;DHT22;40769;51.512;5.494;2023-04-05T07:30:07;11.40;99.90
13808;DHT22;40769;51.512;5.494;2023-04-05T07:32:33;11.40;99.90
13808;DHT22;40769;51.512;5.494;2023-04-05T07:34:59;11.60;99.90
13808;DHT22;40769;51.512;5.494;2023-04-05T07:37:25;11.70;99.90
13808;DHT22;40769;51.512;5.494;2023-04-05T07:39:51;11.90;99.90
13808;DHT22;40769;51.512;5.494;2023-04-05T07:42:17;12.20;99.90
13808;DHT22;40769;51.512;5.494;2023-04-05T07:44:46;12.50;99.90
13808;DHT22;40769;51.512;5.494;2023-04-05T07:47:11;12.90;99.90
13808;DHT22;40769;51.512;5.494;2023-04-05T07:49:37;13.40;99.90
13808;DHT22;40769;51.512;5.494;2023-04-05T07:52:04;13.50;99.90
13808;DHT22;40769;51.512;5.494;2023-04-05T07:54:31;13.80;99.90
13808;DHT22;40769;51.512;5.494;2023-04-05T07:56:58;14.20;99.90
13808;DHT22;40769;51.512;5.494;2023-04-05T07:59:25;14.50;99.90
13808;DHT22;40769;51.512;5.494;2023-04-05T08:01:51;14.60;99.90
13808;DHT22;40769;51.512;5.494;2023-04-05T08:04:18;14.90;99.90
13808;DHT22;40769;51.512;5.494;2023-04-05T08:06:45;15.00;99.90
13808;DHT22;40769;51.512;5.494;2023-04-05T08:09:11;15.20;99.90
13808;DHT22;40769;51.512;5.494;2023-04-05T08:11:37;15.50;99.90
13808;DHT22;40769;51.512;5.494;2023-04-05T08:14:03;15.70;99.90
13808;DHT22;40769;51.512;5.494;2023-04-05T08:16:29;15.90;99.90
13808;DHT22;40769;51.512;5.494;2023-04-05T08:18:55;16.20;99.90
13808;DHT22;40769;51.512;5.494;2023-04-05T08:21:21;16.40;99.90
13808;DHT22;40769;51.512;5.494;2023-04-05T08:23:47;16.70;99.90
13808;DHT22;40769;51.512;5.494;2023-04-05T08:26:14;16.90;99.90
13808;DHT22;40769;51.512;5.494;2023-04-05T08:28:40;17.10;99.90
13808;DHT22;40769;51.512;5.494;2023-04-05T08:31:06;17.20;99.90
13808;DHT22;40769;51.512;5.494;2023-04-05T08:33:32;17.10;99.90
13808;DHT22;40769;51.512;5.494;2023-04-05T08:36:06;17.20;99.90
13808;DHT22;40769;51.512;5.494;2023-04-05T08:38:32;17.10;99.90
13808;DHT22;40769;51.512;5.494;2023-04-05T08:41:18;17.00;99.90
13808;DHT22;40769;51.512;5.494;2023-04-05T08:43:59;17.10;99.90
13808;DHT22;40769;51.512;5.494;2023-04-05T08:46:30;17.20;99.90
13808;DHT22;40769;51.512;5.494;2023-04-05T08:48:56;17.50;99.90
13808;DHT22;40769;51.512;5.494;2023-04-05T08:51:23;17.60;99.90
13808;DHT22;40769;51.512;5.494;2023-04-05T08:53:51;17.80;99.90
13808;DHT22;40769;51.512;5.494;2023-04-05T08:56:25;18.00;99.90
13808;DHT22;40769;51.512;5.494;2023-04-05T09:01:28;18.50;99.90
13808;DHT22;40769;51.512;5.494;2023-04-05T09:03:56;18.70;99.90
13808;DHT22;40769;51.512;5.494;2023-04-05T09:06:22;18.90;99.90
13808;DHT22;40769;51.512;5.494;2023-04-05T09:08:48;19.20;99.90
13808;DHT22;40769;51.512;5.494;2023-04-05T09:11:15;19.30;99.90
13808;DHT22;40769;51.512;5.494;2023-04-05T09:13:41;19.30;99.90
13808;DHT22;40769;51.512;5.494;2023-04-05T09:16:07;19.40;99.90
13808;DHT22;40769;51.512;5.494;2023-04-05T09:18:32;19.50;99.90
13808;DHT22;40769;51.512;5.494;2023-04-05T09:21:02;19.60;99.90
13808;DHT22;40769;51.512;5.494;2023-04-05T09:23:29;19.80;99.90
13808;DHT22;40769;51.512;5.494;2023-04-05T09:25:55;19.90;99.90
13808;DHT22;40769;51.512;5.494;2023-04-05T09:28:20;20.00;99.90
13808;DHT22;40769;51.512;5.494;2023-04-05T09:30:46;20.00;99.90
13808;DHT22;40769;51.512;5.494;2023-04-05T09:33:17;20.10;99.90
13808;DHT22;40769;51.512;5.494;2023-04-05T09:35:43;20.00;99.90
13808;DHT22;40769;51.512;5.494;2023-04-05T09:38:09;20.00;99.90
13808;DHT22;40769;51.512;5.494;2023-04-05T09:40:48;19.90;99.90
13808;DHT22;40769;51.512;5.494;2023-04-05T09:43:34;19.90;99.90
13808;DHT22;40769;51.512;5.494;2023-04-05T09:46:00;19.90;99.90
13808;DHT22;40769;51.512;5.494;2023-04-05T09:48:47;19.90;99.90
13808;DHT22;40769;51.512;5.494;2023-04-05T09:51:17;20.00;99.90
13808;DHT22;40769;51.512;5.494;2023-04-05T09:53:57;20.00;99.90
13808;DHT22;40769;51.512;5.494;2023-04-05T09:56:23;20.00;99.90
13808;DHT22;40769;51.512;5.494;2023-04-05T09:58:57;20.00;99.90
13808;DHT22;40769;51.512;5.494;2023-04-05T10:01:26;19.90;99.90
13808;DHT22;40769;51.512;5.494;2023-04-05T10:03:53;19.90;99.90
13808;DHT22;40769;51.512;5.494;2023-04-05T10:06:19;19.90;99.90
13808;DHT22;40769;51.512;5.494;2023-04-05T10:08:46;20.00;99.90
13808;DHT22;40769;51.512;5.494;2023-04-05T10:11:13;20.10;99.90
13808;DHT22;40769;51.512;5.494;2023-04-05T10:13:42;20.20;99.90
13808;DHT22;40769;51.512;5.494;2023-04-05T10:16:11;20.30;99.90
13808;DHT22;40769;51.512;5.494;2023-04-05T10:18:47;20.40;99.90
13808;DHT22;40769;51.512;5.494;2023-04-05T10:21:14;20.50;99.70
13808;DHT22;40769;51.512;5.494;2023-04-05T10:23:45;20.60;99.90
13808;DHT22;40769;51.512;5.494;2023-04-05T10:27:03;20.60;99.90
13808;DHT22;40769;51.512;5.494;2023-04-05T10:29:11;20.70;99.90
13808;DHT22;40769;51.512;5.494;2023-04-05T10:31:49;20.80;99.90
13808;DHT22;40769;51.512;5.494;2023-04-05T10:37:00;21.00;99.90
13808;DHT22;40769;51.512;5.494;2023-04-05T10:39:34;21.10;99.20
13808;DHT22;40769;51.512;5.494;2023-04-05T10:42:12;21.20;98.90
13808;DHT22;40769;51.512;5.494;2023-04-05T10:44:42;21.30;98.00
13808;DHT22;40769;51.512;5.494;2023-04-05T10:47:13;21.30;99.90
13808;DHT22;40769;51.512;5.494;2023-04-05T10:49:42;21.30;97.80
13808;DHT22;40769;51.512;5.494;2023-04-05T10:52:10;21.30;97.40
13808;DHT22;40769;51.512;5.494;2023-04-05T10:54:36;21.30;98.10
13808;DHT22;40769;51.512;5.494;2023-04-05T10:57:04;21.20;97.70
13808;DHT22;40769;51.512;5.494;2023-04-05T10:59:32;21.10;96.30
13808;DHT22;40769;51.512;5.494;2023-04-05T11:01:58;21.00;97.30
13808;DHT22;40769;51.512;5.494;2023-04-05T11:04:25;20.90;96.90
13808;DHT22;40769;51.512;5.494;2023-04-05T11:07:17;20.90;93.70
13808;DHT22;40769;51.512;5.494;2023-04-05T11:10:00;20.70;90.00
13808;DHT22;40769;51.512;5.494;2023-04-05T11:18:08;20.40;93.40
13808;DHT22;40769;51.512;5.494;2023-04-05T11:23:11;20.70;94.40
13808;DHT22;40769;51.512;5.494;2023-04-05T11:25:38;20.70;95.90
13808;DHT22;40769;51.512;5.494;2023-04-05T11:28:07;20.80;95.40
13808;DHT22;40769;51.512;5.494;2023-04-05T11:30:49;20.90;95.10
13808;DHT22;40769;51.512;5.494;2023-04-05T11:33:38;21.00;91.90
13808;DHT22;40769;51.512;5.494;2023-04-05T11:36:04;21.10;92.60
13808;DHT22;40769;51.512;5.494;2023-04-05T11:38:30;21.20;95.50
13808;DHT22;40769;51.512;5.494;2023-04-05T11:41:14;21.20;95.10
13808;DHT22;40769;51.512;5.494;2023-04-05T11:43:46;21.30;92.40
13808;DHT22;40769;51.512;5.494;2023-04-05T11:46:13;21.40;94.90
13808;DHT22;40769;51.512;5.494;2023-04-05T11:48:40;21.50;94.10
13808;DHT22;40769;51.512;5.494;2023-04-05T11:51:08;21.60;94.30
13808;DHT22;40769;51.512;5.494;2023-04-05T11:53:37;21.60;93.70
13808;DHT22;40769;51.512;5.494;2023-04-05T11:56:08;21.60;94.40
13808;DHT22;40769;51.512;5.494;2023-04-05T11:58:35;21.60;92.20
13808;DHT22;40769;51.512;5.494;2023-04-05T12:01:04;21.70;93.90
13808;DHT22;40769;51.512;5.494;2023-04-05T12:03:30;21.70;93.30
13808;DHT22;40769;51.512;5.494;2023-04-05T12:06:01;21.70;94.00
13808;DHT22;40769;51.512;5.494;2023-04-05T12:08:44;21.70;92.20
13808;DHT22;40769;51.512;5.494;2023-04-05T12:11:16;21.70;90.60
13808;DHT22;40769;51.512;5.494;2023-04-05T12:13:41;21.80;93.10
13808;DHT22;40769;51.512;5.494;2023-04-05T12:16:09;21.70;92.90
13808;DHT22;40769;51.512;5.494;2023-04-05T12:18:36;21.70;92.60
13808;DHT22;40769;51.512;5.494;2023-04-05T12:21:04;21.60;91.40
13808;DHT22;40769;51.512;5.494;2023-04-05T12:23:30;21.50;91.20
13808;DHT22;40769;51.512;5.494;2023-04-05T12:25:56;21.40;91.60
13808;DHT22;40769;51.512;5.494;2023-04-05T12:28:22;21.40;91.70
13808;DHT22;40769;51.512;5.494;2023-04-05T12:30:49;21.40;91.80
13808;DHT22;40769;51.512;5.494;2023-04-05T12:33:24;21.40;92.10
13808;DHT22;40769;51.512;5.494;2023-04-05T12:35:50;21.40;92.10
13808;DHT22;40769;51.512;5.494;2023-04-05T12:38:16;21.40;91.70
13808;DHT22;40769;51.512;5.494;2023-04-05T12:40:42;21.40;91.80
13808;DHT22;40769;51.512;5.494;2023-04-05T12:43:08;21.40;91.60
13808;DHT22;40769;51.512;5.494;2023-04-05T12:45:35;21.50;91.70
13808;DHT22;40769;51.512;5.494;2023-04-05T12:48:18;21.50;91.20
13808;DHT22;40769;51.512;5.494;2023-04-05T12:50:45;21.40;88.40
13808;DHT22;40769;51.512;5.494;2023-04-05T12:53:16;21.50;90.90
13808;DHT22;40769;51.512;5.494;2023-04-05T12:55:50;21.50;90.00
13808;DHT22;40769;51.512;5.494;2023-04-05T12:58:17;21.60;88.30
13808;DHT22;40769;51.512;5.494;2023-04-05T13:00:43;21.70;90.60
13808;DHT22;40769;51.512;5.494;2023-04-05T13:03:17;21.70;90.60
13808;DHT22;40769;51.512;5.494;2023-04-05T13:05:45;21.80;87.80
13808;DHT22;40769;51.512;5.494;2023-04-05T13:08:11;21.90;90.10
13808;DHT22;40769;51.512;5.494;2023-04-05T13:10:37;21.90;88.90
13808;DHT22;40769;51.512;5.494;2023-04-05T13:13:03;21.90;86.00
13808;DHT22;40769;51.512;5.494;2023-04-05T13:15:28;21.90;86.50
13808;DHT22;40769;51.512;5.494;2023-04-05T13:17:54;21.90;86.50
13808;DHT22;40769;51.512;5.494;2023-04-05T13:20:20;21.90;87.00
13808;DHT22;40769;51.512;5.494;2023-04-05T13:22:46;21.90;87.70
13808;DHT22;40769;51.512;5.494;2023-04-05T13:25:13;21.90;87.80
13808;DHT22;40769;51.512;5.494;2023-04-05T13:27:39;22.00;87.20
13808;DHT22;40769;51.512;5.494;2023-04-05T13:30:05;22.10;85.50
13808;DHT22;40769;51.512;5.494;2023-04-05T13:32:32;22.20;85.20
13808;DHT22;40769;51.512;5.494;2023-04-05T13:34:58;22.30;85.30
13808;DHT22;40769;51.512;5.494;2023-04-05T13:37:24;22.30;85.70
13808;DHT22;40769;51.512;5.494;2023-04-05T13:39:49;22.40;85.90
13808;DHT22;40769;51.512;5.494;2023-04-05T13:42:15;22.50;85.30
13808;DHT22;40769;51.512;5.494;2023-04-05T13:44:41;22.50;85.30
13808;DHT22;40769;51.512;5.494;2023-04-05T13:47:07;22.60;85.30
13808;DHT22;40769;51.512;5.494;2023-04-05T13:49:32;22.60;85.80
13808;DHT22;40769;51.512;5.494;2023-04-05T13:51:58;22.70;87.10
13808;DHT22;40769;51.512;5.494;2023-04-05T13:54:24;22.70;87.20
13808;DHT22;40769;51.512;5.494;2023-04-05T13:56:50;22.80;85.20
13808;DHT22;40769;51.512;5.494;2023-04-05T13:59:15;23.00;86.70
13808;DHT22;40769;51.512;5.494;2023-04-05T14:01:47;23.00;85.10
13808;DHT22;40769;51.512;5.494;2023-04-05T14:04:14;23.00;82.40
13808;DHT22;40769;51.512;5.494;2023-04-05T14:06:40;23.00;83.40
13808;DHT22;40769;51.512;5.494;2023-04-05T14:09:05;23.00;84.30
13808;DHT22;40769;51.512;5.494;2023-04-05T14:11:31;23.00;82.80
13808;DHT22;40769;51.512;5.494;2023-04-05T14:13:57;23.00;78.90
13808;DHT22;40769;51.512;5.494;2023-04-05T14:16:23;22.90;81.40
13808;DHT22;40769;51.512;5.494;2023-04-05T14:18:48;22.90;82.30
13808;DHT22;40769;51.512;5.494;2023-04-05T14:21:14;22.80;83.20
13808;DHT22;40769;51.512;5.494;2023-04-05T14:23:40;22.80;84.50
13808;DHT22;40769;51.512;5.494;2023-04-05T14:26:05;22.90;84.20
13808;DHT22;40769;51.512;5.494;2023-04-05T14:28:31;22.90;85.20
13808;DHT22;40769;51.512;5.494;2023-04-05T14:30:58;23.00;84.30
13808;DHT22;40769;51.512;5.494;2023-04-05T14:33:24;23.10;82.70
13808;DHT22;40769;51.512;5.494;2023-04-05T14:35:51;23.20;84.30
13808;DHT22;40769;51.512;5.494;2023-04-05T14:38:16;23.30;84.60
13808;DHT22;40769;51.512;5.494;2023-04-05T14:40:42;23.40;85.40
13808;DHT22;40769;51.512;5.494;2023-04-05T14:43:08;23.50;85.00
13808;DHT22;40769;51.512;5.494;2023-04-05T14:45:33;23.60;86.10
13808;DHT22;40769;51.512;5.494;2023-04-05T14:47:59;23.70;86.10
13808;DHT22;40769;51.512;5.494;2023-04-05T14:50:25;23.80;85.90
13808;DHT22;40769;51.512;5.494;2023-04-05T14:52:54;23.90;82.10
13808;DHT22;40769;51.512;5.494;2023-04-05T14:55:20;23.90;79.30
13808;DHT22;40769;51.512;5.494;2023-04-05T14:57:45;23.90;82.50
13808;DHT22;40769;51.512;5.494;2023-04-05T15:00:12;24.00;79.50
13808;DHT22;40769;51.512;5.494;2023-04-05T15:02:41;23.90;76.40
13808;DHT22;40769;51.512;5.494;2023-04-05T15:05:06;23.70;77.40
13808;DHT22;40769;51.512;5.494;2023-04-05T15:07:32;23.60;77.60
13808;DHT22;40769;51.512;5.494;2023-04-05T15:09:58;23.50;77.50
13808;DHT22;40769;51.512;5.494;2023-04-05T15:12:23;23.20;78.30
13808;DHT22;40769;51.512;5.494;2023-04-05T15:14:51;23.00;77.80
13808;DHT22;40769;51.512;5.494;2023-04-05T15:17:19;22.90;77.80
13808;DHT22;40769;51.512;5.494;2023-04-05T15:19:44;22.80;78.10
13808;DHT22;40769;51.512;5.494;2023-04-05T15:22:10;22.80;77.90
13808;DHT22;40769;51.512;5.494;2023-04-05T15:24:36;22.70;79.00
13808;DHT22;40769;51.512;5.494;2023-04-05T15:27:02;22.70;79.50
13808;DHT22;40769;51.512;5.494;2023-04-05T15:29:29;22.70;79.50
13808;DHT22;40769;51.512;5.494;2023-04-05T15:31:54;22.70;78.40
13808;DHT22;40769;51.512;5.494;2023-04-05T15:34:22;22.70;77.00
13808;DHT22;40769;51.512;5.494;2023-04-05T15:36:48;22.60;76.70
13808;DHT22;40769;51.512;5.494;2023-04-05T15:39:13;22.60;77.30
13808;DHT22;40769;51.512;5.494;2023-04-05T15:41:39;22.50;78.30
13808;DHT22;40769;51.512;5.494;2023-04-05T15:44:08;22.60;77.10
13808;DHT22;40769;51.512;5.494;2023-04-05T15:46:34;22.60;75.40
13808;DHT22;40769;51.512;5.494;2023-04-05T15:48:59;22.70;77.50
13808;DHT22;40769;51.512;5.494;2023-04-05T15:51:25;22.70;73.40
13808;DHT22;40769;51.512;5.494;2023-04-05T15:53:51;22.70;72.70
13808;DHT22;40769;51.512;5.494;2023-04-05T15:56:17;22.70;74.30
13808;DHT22;40769;51.512;5.494;2023-04-05T15:58:42;22.60;74.10
13808;DHT22;40769;51.512;5.494;2023-04-05T16:01:08;22.50;73.00
13808;DHT22;40769;51.512;5.494;2023-04-05T16:03:34;22.40;73.30
13808;DHT22;40769;51.512;5.494;2023-04-05T16:05:59;22.30;73.30